Time;durP1;ratioP1;P1;durP2;ratioP2;P2;SDS_P1;SDS_P2;PMS_P1;PMS_P2;Temp;Humidity;BMP_temperature;BMP_pressure;BME280_temperature;BME280_humidity;BME280_pressure;Samples;Min_cycle;Max_cycle;Signal;HPM_P1;HPM_P2
2021/05/25 06:56:59;;;;;;;;;;;;;;;;;;6231640;22;20018;-50
2021/05/25 06:59:25;;;;;;;;;;;;;;;;;;6271904;22;20256;-46
2021/05/25 07:01:53;;;;;;;;;;;;;;;;;;6271720;22;19918;-49
2021/05/25 07:04:19;;;;;;;;;;;;;;;;;;6271890;22;19899;-46
2021/05/25 07:06:45;;;;;;;;;;;;;;;;;;6271280;22;19899;-47
2021/05/25 07:09:12;;;;;;;;;;;;;;;;;;6273226;22;19899;-51
2021/05/25 07:11:38;;;;;;;;;;;;;;;;;;6246069;22;19900;-51
2021/05/25 07:14:04;;;;;;;;;;;;;;;;;;6272200;22;19902;-48
2021/05/25 07:16:32;;;;;;;;;;;;;;;;;;6273197;22;19947;-45
2021/05/25 07:18:58;;;;;;;;;;;;;;;;;;6272668;22;19895;-47
2021/05/25 07:21:24;;;;;;;;;;;;;;;;;;6274042;22;19951;-48
2021/05/25 07:23:50;;;;;;;;;;;;;;;;;;6274515;22;19964;-47
2021/05/25 07:26:16;;;;;;;;;;;;;;;;;;6274073;22;20009;-46
2021/05/25 07:28:44;;;;;;;;;;;;;;;;;;6273137;22;19898;-46
2021/05/25 07:31:10;;;;;;;;;;;;;;;;;;6274194;22;19994;-46
2021/05/25 07:33:36;;;;;;;;;;;;;;;;;;6273240;22;20100;-47
2021/05/25 07:36:05;;;;;;;;;;;;;;;;;;6274092;22;19962;-46
2021/05/25 07:38:34;;;;;;;;;;;;;;;;;;6274610;22;19973;-45
2021/05/25 07:41:00;;;;;;;;;;;;;;;;;;6274759;22;20269;-44
2021/05/25 07:43:26;;;;;;;;;;;;;;;;;;6274990;22;19899;-46
2021/05/25 07:45:52;;;;;;;;;;;;;;;;;;6274631;22;19960;-43
2021/05/25 07:48:18;;;;;;;;;;;;;;;;;;6275070;22;19906;-44
2021/05/25 07:50:44;;;;;;;;;;;;;;;;;;6247772;22;19899;-43
2021/05/25 07:53:10;;;;;;;;;;;;;;;;;;6275352;22;19990;-44
2021/05/25 07:55:36;;;;;;;;;;;;;;;;;;6275345;22;19974;-48
2021/05/25 07:58:02;;;;;;;;;;;;;;;;;;6274553;22;19922;-44
2021/05/25 08:00:29;;;;;;;;;;;;;;;;;;6273013;22;20041;-44
2021/05/25 08:02:56;;;;;;;;;;;;;;;;;;6275174;22;19899;-51
2021/05/25 08:05:24;;;;;;;;;;;;;;;;;;6273490;22;19969;-44
2021/05/25 08:07:50;;;;;;;;;;;;;;;;;;6275776;22;19945;-46
2021/05/25 08:10:16;;;;;;;;;;;;;;;;;;6275668;22;19903;-49
2021/05/25 08:12:42;;;;;;;;;;;;;;;;;;6274748;22;19970;-44
2021/05/25 08:15:08;;;;;;;;;;;;;;;;;;6274763;22;19918;-44
2021/05/25 08:20:14;;;;;;;;;;;;;;;;;;6272906;22;19921;-45
2021/05/25 08:22:40;;;;;;;;;;;;;;;;;;6274581;22;19981;-43
2021/05/25 08:25:06;;;;;;;;;;;;;;;;;;6274206;22;20297;-44
2021/05/25 08:27:32;;;;;;;;;;;;;;;;;;6274028;22;19983;-44
2021/05/25 08:30:01;;;;;;;;;;;;;;;;;;6274695;22;20260;-45
2021/05/25 08:32:27;;;;;;;;;;;;;;;;;;6273595;22;19976;-44
2021/05/25 08:34:53;;;;;;;;;;;;;;;;;;6275107;22;19943;-46
2021/05/25 08:37:21;;;;;;;;;;;;;;;;;;6274033;22;20282;-46
2021/05/25 08:39:47;;;;;;;;;;;;;;;;;;6272417;22;19927;-44
2021/05/25 08:42:13;;;;;;;;;;;;;;;;;;6274183;22;19899;-45
2021/05/25 08:44:39;;;;;;;;;;;;;;;;;;6274723;22;19986;-45
2021/05/25 08:47:05;;;;;;;;;;;;;;;;;;6274597;22;19926;-46
2021/05/25 08:49:31;;;;;;;;;;;;;;;;;;6274536;22;19899;-45
2021/05/25 08:51:59;;;;;;;;;;;;;;;;;;6274051;22;19968;-45
2021/05/25 08:54:25;;;;;;;;;;;;;;;;;;6274667;22;19906;-45
2021/05/25 08:56:51;;;;;;;;;;;;;;;;;;6274442;22;19984;-44
2021/05/25 08:59:18;;;;;;;;;;;;;;;;;;6274061;22;20332;-45
2021/05/25 09:01:44;;;;;;;;;;;;;;;;;;6272078;22;20196;-44
2021/05/25 09:04:12;;;;;;;;;;;;;;;;;;6274429;22;19903;-45
2021/05/25 09:06:38;;;;;;;;;;;;;;;;;;6272199;22;19899;-43
2021/05/25 09:09:04;;;;;;;;;;;;;;;;;;6272688;22;19974;-45
2021/05/25 09:11:30;;;;;;;;;;;;;;;;;;6274330;22;20254;-46
2021/05/25 09:13:56;;;;;;;;;;;;;;;;;;6274335;22;19903;-42
2021/05/25 09:16:22;;;;;;;;;;;;;;;;;;6273700;22;20258;-43
2021/05/25 09:18:48;;;;;;;;;;;;;;;;;;6273257;22;19906;-43
2021/05/25 09:21:14;;;;;;;;;;;;;;;;;;6273502;22;19907;-51
2021/05/25 09:23:43;;;;;;;;;;;;;;;;;;6273658;22;19974;-44
2021/05/25 09:26:13;;;;;;;;;;;;;;;;;;6274694;22;19929;-44
2021/05/25 09:28:39;;;;;;;;;;;;;;;;;;6272408;22;19899;-45
2021/05/25 09:31:05;;;;;;;;;;;;;;;;;;6273444;22;20227;-46
2021/05/25 09:33:32;;;;;;;;;;;;;;;;;;6272195;22;19982;-46
2021/05/25 09:35:58;;;;;;;;;;;;;;;;;;6273563;22;20383;-48
2021/05/25 09:38:24;;;;;;;;;;;;;;;;;;6273732;22;19895;-46
2021/05/25 09:40:50;;;;;;;;;;;;;;;;;;6274073;22;19915;-46
2021/05/25 09:43:16;;;;;;;;;;;;;;;;;;6273211;22;19899;-46
2021/05/25 09:45:42;;;;;;;;;;;;;;;;;;6271167;22;19911;-47
2021/05/25 09:48:08;;;;;;;;;;;;;;;;;;6271693;22;20310;-46
2021/05/25 09:50:34;;;;;;;;;;;;;;;;;;6271566;22;19977;-44
2021/05/25 09:53:00;;;;;;;;;;;;;;;;;;6273936;22;19895;-47
2021/05/25 09:55:26;;;;;;;;;;;;;;;;;;6273276;22;20305;-47
2021/05/25 09:57:52;;;;;;;;;;;;;;;;;;6272564;22;20359;-43
2021/05/25 10:00:18;;;;;;;;;;;;;;;;;;6271927;22;19911;-45
2021/05/25 10:02:44;;;;;;;;;;;;;;;;;;6273797;22;19899;-46
2021/05/25 10:05:12;;;;;;;;;;;;;;;;;;6273717;22;19987;-46
2021/05/25 10:07:38;;;;;;;;;;;;;;;;;;6273770;22;19906;-44
2021/05/25 10:10:05;;;;;;;;;;;;;;;;;;6271557;22;19906;-42
2021/05/25 10:12:31;;;;;;;;;;;;;;;;;;6273301;22;19917;-45
2021/05/25 10:14:57;;;;;;;;;;;;;;;;;;6273619;22;19915;-45
2021/05/25 10:17:44;;;;;;;;;;;;;;;;;;6273547;22;20339;-44
2021/05/25 10:20:10;;;;;;;;;;;;;;;;;;6273664;22;19934;-46
2021/05/25 10:22:36;;;;;;;;;;;;;;;;;;6273488;22;19978;-44
2021/05/25 10:25:05;;;;;;;;;;;;;;;;;;6270932;22;20345;-48
2021/05/25 10:27:31;;;;;;;;;;;;;;;;;;6270972;22;19907;-47
2021/05/25 10:30:00;;;;;;;;;;;;;;;;;;6272439;22;19960;-47
2021/05/25 10:32:26;;;;;;;;;;;;;;;;;;6272667;22;20273;-47
2021/05/25 10:34:53;;;;;;;;;;;;;;;;;;6271979;22;19903;-48
2021/05/25 10:37:19;;;;;;;;;;;;;;;;;;6272238;22;19917;-48
2021/05/25 10:39:45;;;;;;;;;;;;;;;;;;6272199;22;19903;-48
2021/05/25 10:42:11;;;;;;;;;;;;;;;;;;6269890;22;19926;-48
2021/05/25 10:44:37;;;;;;;;;;;;;;;;;;6274188;22;19909;-50
2021/05/25 10:47:03;;;;;;;;;;;;;;;;;;6273671;22;19929;-47
2021/05/25 10:49:29;;;;;;;;;;;;;;;;;;6274336;22;19944;-49
2021/05/25 10:51:55;;;;;;;;;;;;;;;;;;6274863;22;19905;-47
2021/05/25 10:54:20;;;;;;;;;;;;;;;;;;6274560;22;19899;-47
2021/05/25 10:56:46;;;;;;;;;;;;;;;;;;6273544;22;19926;-47
2021/05/25 10:59:14;;;;;;;;;;;;;;;;;;6270070;22;19946;-49
2021/05/25 11:01:40;;;;;;;;;;;;;;;;;;6272684;22;19911;-46
2021/05/25 11:04:06;;;;;;;;;;;;;;;;;;6274197;22;20200;-49
2021/05/25 11:06:32;;;;;;;;;;;;;;;;;;6271819;22;19925;-53
2021/05/25 11:08:58;;;;;;;;;;;;;;;;;;6273855;22;20216;-46
2021/05/25 11:11:24;;;;;;;;;;;;;;;;;;6274158;22;19903;-47
2021/05/25 11:13:53;;;;;;;;;;;;;;;;;;6272615;22;20300;-48
2021/05/25 11:16:21;;;;;;;;;;;;;;;;;;6273002;22;19906;-48
2021/05/25 11:18:52;;;;;;;;;;;;;;;;;;6273911;22;19938;-49
2021/05/25 11:21:22;;;;;;;;;;;;;;;;;;6271927;22;20303;-52
2021/05/25 11:23:50;;;;;;;;;;;;;;;;;;6271838;22;19935;-54
2021/05/25 11:26:16;;;;;;;;;;;;;;;;;;6270326;22;20304;-49
2021/05/25 11:28:42;;;;;;;;;;;;;;;;;;6272202;22;19910;-50
2021/05/25 11:31:08;;;;;;;;;;;;;;;;;;6273163;22;19906;-55
2021/05/25 11:33:34;;;;;;;;;;;;;;;;;;6274315;22;19945;-49
2021/05/25 11:36:00;;;;;;;;;;;;;;;;;;6274019;22;19903;-46
2021/05/25 11:38:26;;;;;;;;;;;;;;;;;;6273307;22;19899;-46
2021/05/25 11:40:52;;;;;;;;;;;;;;;;;;6273215;22;19972;-46
2021/05/25 11:43:18;;;;;;;;;;;;;;;;;;6272592;22;20177;-49
2021/05/25 11:45:44;;;;;;;;;;;;;;;;;;6273034;22;19974;-47
2021/05/25 11:48:10;;;;;;;;;;;;;;;;;;6274347;22;19983;-46
2021/05/25 11:50:36;;;;;;;;;;;;;;;;;;6274432;22;19906;-47
2021/05/25 11:53:02;;;;;;;;;;;;;;;;;;6273362;22;19990;-47
2021/05/25 11:55:29;;;;;;;;;;;;;;;;;;6273256;22;20257;-48
2021/05/25 11:57:55;;;;;;;;;;;;;;;;;;6272068;22;19915;-47
2021/05/25 12:00:21;;;;;;;;;;;;;;;;;;6272130;22;19907;-47
2021/05/25 12:02:47;;;;;;;;;;;;;;;;;;6274494;22;19903;-47
2021/05/25 12:05:14;;;;;;;;;;;;;;;;;;6273969;22;19900;-47
2021/05/25 12:07:40;;;;;;;;;;;;;;;;;;6275031;22;19899;-46
2021/05/25 12:10:06;;;;;;;;;;;;;;;;;;6274820;22;19952;-45
2021/05/25 12:12:32;;;;;;;;;;;;;;;;;;6274343;22;19982;-46
2021/05/25 12:14:58;;;;;;;;;;;;;;;;;;6275234;22;19899;-46
2021/05/25 12:17:24;;;;;;;;;;;;;;;;;;6274323;22;20243;-48
2021/05/25 12:19:50;;;;;;;;;;;;;;;;;;6274178;22;19976;-47
2021/05/25 12:22:16;;;;;;;;;;;;;;;;;;6274015;22;19994;-47
2021/05/25 12:24:43;;;;;;;;;;;;;;;;;;6273797;22;19903;-48
2021/05/25 12:27:09;;;;;;;;;;;;;;;;;;6274322;22;19899;-47
2021/05/25 12:29:35;;;;;;;;;;;;;;;;;;6274152;22;19905;-48
2021/05/25 12:32:01;;;;;;;;;;;;;;;;;;6273789;22;19934;-49
2021/05/25 12:34:27;;;;;;;;;;;;;;;;;;6273366;22;20312;-46
2021/05/25 12:36:53;;;;;;;;;;;;;;;;;;6273711;22;19906;-47
2021/05/25 12:39:26;;;;;;;;;;;;;;;;;;6273561;22;19957;-48
2021/05/25 12:41:54;;;;;;;;;;;;;;;;;;6273875;22;19907;-47
2021/05/25 12:44:20;;;;;;;;;;;;;;;;;;6274634;22;19906;-47
2021/05/25 12:46:46;;;;;;;;;;;;;;;;;;6274115;22;19910;-47
2021/05/25 12:49:12;;;;;;;;;;;;;;;;;;6274316;22;19903;-49
2021/05/25 12:51:38;;;;;;;;;;;;;;;;;;6273197;22;19952;-48
2021/05/25 12:54:04;;;;;;;;;;;;;;;;;;6273569;22;20225;-49
2021/05/25 12:56:30;;;;;;;;;;;;;;;;;;6271212;22;19922;-47
2021/05/25 12:58:59;;;;;;;;;;;;;;;;;;6274187;22;19926;-47
2021/05/25 13:01:26;;;;;;;;;;;;;;;;;;6272338;22;19945;-50
2021/05/25 13:03:52;;;;;;;;;;;;;;;;;;6270704;22;20088;-49
2021/05/25 13:06:21;;;;;;;;;;;;;;;;;;6272540;22;19914;-47
2021/05/25 13:08:53;;;;;;;;;;;;;;;;;;6273166;22;19903;-50
2021/05/25 13:11:19;;;;;;;;;;;;;;;;;;6272834;22;19899;-49
2021/05/25 13:13:46;;;;;;;;;;;;;;;;;;6273194;22;19918;-49
2021/05/25 13:16:12;;;;;;;;;;;;;;;;;;6272549;22;19945;-50
2021/05/25 13:18:37;;;;;;;;;;;;;;;;;;6272760;22;19903;-51
2021/05/25 13:21:04;;;;;;;;;;;;;;;;;;6272141;22;20193;-49
2021/05/25 13:23:29;;;;;;;;;;;;;;;;;;6273012;22;19984;-48
2021/05/25 13:26:05;;;;;;;;;;;;;;;;;;6272084;22;19900;-50
2021/05/25 13:28:31;;;;;;;;;;;;;;;;;;6272867;22;19915;-60
2021/05/25 13:30:58;;;;;;;;;;;;;;;;;;6272682;22;19982;-60
2021/05/25 13:33:24;;;;;;;;;;;;;;;;;;6272413;22;19906;-57
2021/05/25 13:35:50;;;;;;;;;;;;;;;;;;6272175;22;19899;-58
2021/05/25 13:38:16;;;;;;;;;;;;;;;;;;6272377;22;19899;-58
2021/05/25 13:40:42;;;;;;;;;;;;;;;;;;6271897;22;19943;-57
2021/05/25 13:43:08;;;;;;;;;;;;;;;;;;6272000;22;19899;-57
2021/05/25 13:45:34;;;;;;;;;;;;;;;;;;6272025;22;19903;-57
2021/05/25 13:48:04;;;;;;;;;;;;;;;;;;6273113;22;19911;-56
2021/05/25 13:50:30;;;;;;;;;;;;;;;;;;6272204;22;19903;-63
2021/05/25 13:52:56;;;;;;;;;;;;;;;;;;6273052;22;19907;-52
2021/05/25 13:55:24;;;;;;;;;;;;;;;;;;6267092;22;19899;-51
2021/05/25 13:57:50;;;;;;;;;;;;;;;;;;6261770;22;19928;-49
2021/05/25 14:00:25;;;;;;;;;;;;;;;;;;6270467;22;19903;-52
2021/05/25 14:02:51;;;;;;;;;;;;;;;;;;6272806;22;19919;-50
2021/05/25 14:05:17;;;;;;;;;;;;;;;;;;6270182;22;19899;-49
2021/05/25 14:07:46;;;;;;;;;;;;;;;;;;6272117;22;19899;-49
2021/05/25 14:10:12;;;;;;;;;;;;;;;;;;6272243;22;19973;-48
2021/05/25 14:12:38;;;;;;;;;;;;;;;;;;6271844;22;19914;-54
2021/05/25 14:15:04;;;;;;;;;;;;;;;;;;6271919;22;19903;-55
2021/05/25 14:17:30;;;;;;;;;;;;;;;;;;6273293;22;20593;-52
2021/05/25 14:19:56;;;;;;;;;;;;;;;;;;6274705;22;20364;-52
2021/05/25 14:22:22;;;;;;;;;;;;;;;;;;6273631;22;19926;-51
2021/05/25 14:24:49;;;;;;;;;;;;;;;;;;6274376;22;19919;-54
2021/05/25 14:27:15;;;;;;;;;;;;;;;;;;6274552;22;19906;-50
2021/05/25 14:29:41;;;;;;;;;;;;;;;;;;6273828;22;19914;-49
2021/05/25 14:32:07;;;;;;;;;;;;;;;;;;6274549;22;19974;-59
2021/05/25 14:34:33;;;;;;;;;;;;;;;;;;6274680;22;20265;-52
2021/05/25 14:36:59;;;;;;;;;;;;;;;;;;6274133;22;19918;-54
2021/05/25 14:39:25;;;;;;;;;;;;;;;;;;6274616;22;19899;-49
2021/05/25 14:41:51;;;;;;;;;;;;;;;;;;6273908;22;19962;-49
2021/05/25 14:44:17;;;;;;;;;;;;;;;;;;6272692;22;19899;-53
2021/05/25 14:46:45;;;;;;;;;;;;;;;;;;6272566;22;19988;-46
2021/05/25 14:49:10;;;;;;;;;;;;;;;;;;6273045;22;19899;-48
2021/05/25 14:51:36;;;;;;;;;;;;;;;;;;6273895;22;19899;-47
2021/05/25 14:54:04;;;;;;;;;;;;;;;;;;6274015;22;19953;-49
2021/05/25 14:56:36;;;;;;;;;;;;;;;;;;6272326;22;19973;-47
2021/05/25 14:59:02;;;;;;;;;;;;;;;;;;6273330;22;19899;-60
2021/05/25 15:01:33;;;;;;;;;;;;;;;;;;6271718;22;20343;-61
2021/05/25 15:04:02;;;;;;;;;;;;;;;;;;6273585;22;20176;-57
2021/05/25 15:06:30;;;;;;;;;;;;;;;;;;6271449;22;19903;-56
2021/05/25 15:08:59;;;;;;;;;;;;;;;;;;6273394;22;19998;-57
2021/05/25 15:11:25;;;;;;;;;;;;;;;;;;6271855;22;19922;-58
2021/05/25 15:13:51;;;;;;;;;;;;;;;;;;6272674;22;19922;-58
2021/05/25 15:16:18;;;;;;;;;;;;;;;;;;6272466;22;19915;-58
2021/05/25 15:18:43;;;;;;;;;;;;;;;;;;6273599;22;19895;-57
2021/05/25 15:21:09;;;;;;;;;;;;;;;;;;6271803;22;19986;-57
2021/05/25 15:23:35;;;;;;;;;;;;;;;;;;6271445;22;20295;-58
2021/05/25 15:26:01;;;;;;;;;;;;;;;;;;6273589;22;20181;-58
2021/05/25 15:28:27;;;;;;;;;;;;;;;;;;6273251;22;20020;-56
2021/05/25 15:30:54;;;;;;;;;;;;;;;;;;6273448;22;19954;-57
2021/05/25 15:33:23;;;;;;;;;;;;;;;;;;6273147;22;19899;-57
2021/05/25 15:35:49;;;;;;;;;;;;;;;;;;6273212;22;19899;-57
2021/05/25 15:38:15;;;;;;;;;;;;;;;;;;6272943;22;20029;-55
2021/05/25 15:40:44;;;;;;;;;;;;;;;;;;6273620;22;19907;-56
2021/05/25 15:43:10;;;;;;;;;;;;;;;;;;6273234;22;19945;-55
2021/05/25 15:45:36;;;;;;;;;;;;;;;;;;6273518;22;19956;-56
2021/05/25 15:48:02;;;;;;;;;;;;;;;;;;6272932;22;20280;-57
2021/05/25 15:50:28;;;;;;;;;;;;;;;;;;6273234;22;19899;-56
2021/05/25 15:52:56;;;;;;;;;;;;;;;;;;6273557;22;20189;-57
2021/05/25 15:55:22;;;;;;;;;;;;;;;;;;6273532;22;19899;-54
2021/05/25 15:57:48;;;;;;;;;;;;;;;;;;6272714;22;19964;-55
2021/05/25 16:00:14;;;;;;;;;;;;;;;;;;6272493;22;19985;-54
2021/05/25 16:02:41;;;;;;;;;;;;;;;;;;6273514;22;19899;-56
2021/05/25 16:05:07;;;;;;;;;;;;;;;;;;6273044;22;19922;-54
2021/05/25 16:07:33;;;;;;;;;;;;;;;;;;6273466;22;20304;-54
2021/05/25 16:09:59;;;;;;;;;;;;;;;;;;6273807;22;19899;-55
2021/05/25 16:12:25;;;;;;;;;;;;;;;;;;6272600;22;19899;-55
2021/05/25 16:14:51;;;;;;;;;;;;;;;;;;6272480;22;19903;-55
2021/05/25 16:17:17;;;;;;;;;;;;;;;;;;6270791;22;19899;-55
2021/05/25 16:19:43;;;;;;;;;;;;;;;;;;6272831;22;19907;-56
2021/05/25 16:22:09;;;;;;;;;;;;;;;;;;6270340;22;19918;-55
2021/05/25 16:24:34;;;;;;;;;;;;;;;;;;6273409;22;20063;-55
2021/05/25 16:27:00;;;;;;;;;;;;;;;;;;6273009;22;19914;-55
2021/05/25 16:29:26;;;;;;;;;;;;;;;;;;6270805;22;19903;-53
2021/05/25 16:31:52;;;;;;;;;;;;;;;;;;6273198;22;19998;-55
2021/05/25 16:34:18;;;;;;;;;;;;;;;;;;6272364;22;19910;-53
2021/05/25 16:36:44;;;;;;;;;;;;;;;;;;6272770;22;19895;-55
2021/05/25 16:39:10;;;;;;;;;;;;;;;;;;6273378;22;19922;-55
2021/05/25 16:41:36;;;;;;;;;;;;;;;;;;6272459;22;19907;-56
2021/05/25 16:44:02;;;;;;;;;;;;;;;;;;6273337;22;19910;-55
2021/05/25 16:46:28;;;;;;;;;;;;;;;;;;6272691;22;20021;-55
2021/05/25 16:48:54;;;;;;;;;;;;;;;;;;6272271;22;20349;-57
2021/05/25 16:51:20;;;;;;;;;;;;;;;;;;6272884;22;19899;-54
2021/05/25 16:53:46;;;;;;;;;;;;;;;;;;6270641;22;19899;-53
2021/05/25 16:56:12;;;;;;;;;;;;;;;;;;6268359;22;19899;-54
2021/05/25 16:58:38;;;;;;;;;;;;;;;;;;6270980;22;20010;-54
2021/05/25 17:03:39;;;;;;;;;;;;;;;;;;6272487;22;19956;-56
2021/05/25 17:06:30;;;;;;;;;;;;;;;;;;6272835;22;19899;-55
2021/05/25 17:11:50;;;;;;;;;;;;;;;;;;6272722;22;19899;-54
2021/05/25 17:19:53;;;;;;;;;;;;;;;;;;6208409;23;19899;-54
2021/05/25 17:22:19;;;;;;;;;;;;;;;;;;6207572;23;19963;-56
2021/05/25 17:25:00;;;;;;;;;;;;;;;;;;6238413;22;19935;-54
2021/05/25 17:27:26;;;;;;;;;;;;;;;;;;6272153;22;19903;-54
2021/05/25 17:29:52;;;;;;;;;;;;;;;;;;6272479;22;19918;-55
2021/05/25 17:32:18;;;;;;;;;;;;;;;;;;6271961;22;19951;-54
2021/05/25 17:34:44;;;;;;;;;;;;;;;;;;6272114;22;19899;-54
2021/05/25 17:37:11;;;;;;;;;;;;;;;;;;6272088;22;19907;-53
2021/05/25 17:39:37;;;;;;;;;;;;;;;;;;6271968;22;19944;-56
2021/05/25 17:42:03;;;;;;;;;;;;;;;;;;6271728;22;19918;-52
2021/05/25 17:44:29;;;;;;;;;;;;;;;;;;6271935;22;19903;-52
2021/05/25 17:46:55;;;;;;;;;;;;;;;;;;6270248;22;20305;-50
2021/05/25 17:49:21;;;;;;;;;;;;;;;;;;6269804;22;19905;-56
2021/05/25 17:51:47;;;;;;;;;;;;;;;;;;6271373;22;19927;-55
2021/05/25 17:54:13;;;;;;;;;;;;;;;;;;6272557;22;19945;-45
2021/05/25 17:56:39;;;;;;;6.57;2.95;;;;;;;;;;6268218;22;20382;-50
2021/05/25 20:27:57;;;;;;;16.73;5.65;;;;;;;;;;6267236;22;20053;-54
2021/05/25 20:30:23;;;;;;;13.52;5.10;;;;;;;;;;6245366;22;20082;-53
2021/05/25 20:32:49;;;;;;;9.38;5.22;;;;;;;;;;6273193;22;20000;-50
2021/05/25 20:38:00;;;;;;;10.40;5.50;;;;;;;;;;6273195;22;20292;-53
2021/05/25 20:40:31;;;;;;;8.98;5.50;;;;;;;;;;6246378;22;20004;-55
2021/05/25 20:42:58;;;;;;;9.00;5.05;;;;;;;;;;6273277;22;20015;-56
2021/05/25 20:45:27;;;;;;;14.23;4.68;;;;;;;;;;6244031;22;20011;-56
2021/05/25 20:47:54;;;;;;;10.30;5.40;;;;;;;;;;6244699;22;20301;-51
2021/05/25 20:50:20;;;;;;;9.68;5.22;;;;;;;;;;6272289;22;19996;-56
2021/05/25 20:52:47;;;;;;;10.07;4.80;;;;;;;;;;6272372;22;20007;-56
2021/05/25 20:55:14;;;;;;;9.65;5.18;;;;;;;;;;6271849;22;20007;-52
2021/05/25 20:57:40;;;;;;;;;;;;;;;;;;6272828;22;20082;-51
2021/05/25 21:00:07;;;;;;;7.53;5.13;;;;;;;;;;6272408;22;20323;-49
2021/05/25 21:02:33;;;;;;;14.40;4.95;;;;;;;;;;6272075;22;20014;-54
2021/05/25 21:04:59;;;;;;;10.18;5.20;;;;;;;;;;6272041;22;20080;-55
2021/05/25 21:07:25;;;;;;;8.75;4.45;;;;;;;;;;6244156;22;20266;-55
2021/05/25 21:09:52;;;;;;;8.90;4.90;;;;;;;;;;6272219;22;19995;-54
2021/05/25 21:12:18;;;;;;;9.13;5.00;;;;;;;;;;6272001;22;20000;-56
2021/05/25 21:14:44;;;;;;;8.33;4.60;;;;;;;;;;6272138;22;20437;-54
2021/05/25 21:17:11;;;;;;;8.90;4.53;;;;;;;;;;6244356;22;20011;-50
2021/05/25 21:19:37;;;;;;;10.05;5.50;;;;;;;;;;6271594;22;20226;-50
